createdAt,value
2019-01-23T00:01:08.262Z,-1.60
2019-01-23T00:03:37.472Z,-1.70
2019-01-23T00:06:06.248Z,-1.60
2019-01-23T00:08:35.959Z,-1.70
2019-01-23T00:11:05.473Z,-1.70
2019-01-23T00:13:34.683Z,-1.70
2019-01-23T00:16:03.487Z,-1.70
2019-01-23T00:18:32.550Z,-1.70
2019-01-23T00:21:01.467Z,-1.70
2019-01-23T00:23:30.356Z,-1.70
2019-01-23T00:25:59.244Z,-1.60
2019-01-23T00:28:28.313Z,-1.60
2019-01-23T00:30:57.099Z,-1.60
2019-01-23T00:33:25.950Z,-1.60
2019-01-23T00:35:55.086Z,-1.70
2019-01-23T00:38:23.973Z,-1.60
2019-01-23T00:40:53.098Z,-1.60
2019-01-23T00:43:21.880Z,-1.50
2019-01-23T00:45:50.952Z,-1.50
2019-01-23T00:48:20.421Z,-1.60
2019-01-23T00:50:49.639Z,-1.60
2019-01-23T00:53:18.483Z,-1.60
2019-01-23T00:55:47.859Z,-1.60
2019-01-23T00:58:16.631Z,-1.60
2019-01-23T01:00:46.128Z,-1.70
2019-01-23T01:03:15.382Z,-1.60
2019-01-23T01:05:44.657Z,-1.60
2019-01-23T01:08:13.485Z,-1.60
2019-01-23T01:10:42.601Z,-1.60
2019-01-23T01:13:11.804Z,-1.60
2019-01-23T01:15:40.663Z,-1.50
2019-01-23T01:18:09.500Z,-1.60
2019-01-23T01:20:38.739Z,-1.60
2019-01-23T01:23:07.680Z,-1.60
2019-01-23T01:25:36.571Z,-1.60
2019-01-23T01:28:05.808Z,-1.50
2019-01-23T01:30:54.093Z,-1.50
2019-01-23T01:33:22.895Z,-1.50
2019-01-23T01:35:53.151Z,-1.60
2019-01-23T01:38:21.906Z,-1.60
2019-01-23T01:40:51.036Z,-1.60
2019-01-23T01:43:19.903Z,-1.50
2019-01-23T01:45:48.709Z,-1.50
2019-01-23T01:48:18.468Z,-1.50
2019-01-23T01:50:47.626Z,-1.50
2019-01-23T01:53:16.416Z,-1.50
2019-01-23T01:55:46.016Z,-1.50
2019-01-23T01:58:14.781Z,-1.60
2019-01-23T02:00:43.673Z,-1.60
2019-01-23T02:03:15.556Z,-1.60
2019-01-23T02:05:43.006Z,-1.50
2019-01-23T02:08:11.803Z,-1.50
2019-01-23T02:10:46.757Z,-1.50
2019-01-23T02:13:15.963Z,-1.50
2019-01-23T02:15:45.042Z,-1.50
2019-01-23T02:18:13.827Z,-1.50
2019-01-23T02:20:43.231Z,-1.50
2019-01-23T02:23:12.034Z,-1.50
2019-01-23T02:25:40.878Z,-1.50
2019-01-23T02:28:09.735Z,-1.50
2019-01-23T02:30:38.475Z,-1.50
2019-01-23T02:33:07.383Z,-1.50
2019-01-23T02:35:36.488Z,-1.50
2019-01-23T02:38:05.334Z,-1.50
2019-01-23T02:40:36.268Z,-1.40
2019-01-23T02:43:05.402Z,-1.40
2019-01-23T02:45:34.807Z,-1.40
2019-01-23T02:48:03.646Z,-1.40
2019-01-23T02:50:32.404Z,-1.40
2019-01-23T02:53:01.174Z,-1.40
2019-01-23T02:55:30.216Z,-1.40
2019-01-23T02:57:59.282Z,-1.40
2019-01-23T03:00:28.458Z,-1.40
2019-01-23T03:02:57.309Z,-1.40
2019-01-23T03:05:26.072Z,-1.40
2019-01-23T03:07:54.899Z,-1.40
2019-01-23T03:10:23.915Z,-1.40
2019-01-23T03:12:58.856Z,-1.40
2019-01-23T03:15:27.718Z,-1.40
2019-01-23T03:18:00.940Z,-1.40
2019-01-23T03:20:29.836Z,-1.40
2019-01-23T03:22:58.628Z,-1.40
2019-01-23T03:25:27.474Z,-1.40
2019-01-23T03:27:56.260Z,-1.40
2019-01-23T03:30:25.177Z,-1.40
2019-01-23T03:32:54.378Z,-1.40
2019-01-23T03:35:23.484Z,-1.40
2019-01-23T03:37:52.395Z,-1.40
2019-01-23T03:40:22.066Z,-1.40
2019-01-23T03:42:51.072Z,-1.40
2019-01-23T03:45:20.863Z,-1.40
2019-01-23T03:47:49.988Z,-1.30
2019-01-23T03:50:19.925Z,-1.40
2019-01-23T03:52:48.846Z,-1.40
2019-01-23T03:55:19.674Z,-1.40
2019-01-23T03:57:48.651Z,-1.40
2019-01-23T04:00:22.472Z,-1.40
2019-01-23T04:02:52.745Z,-1.40
2019-01-23T04:05:21.747Z,-1.40
2019-01-23T04:07:50.675Z,-1.40
2019-01-23T04:10:19.609Z,-1.30
2019-01-23T04:12:48.414Z,-1.30
2019-01-23T04:15:17.534Z,-1.40
2019-01-23T04:17:46.539Z,-1.40
2019-01-23T04:20:17.686Z,-1.40
2019-01-23T04:22:46.722Z,-1.30
2019-01-23T04:25:15.752Z,-1.30
2019-01-23T04:27:44.683Z,-1.40
2019-01-23T04:30:19.194Z,-1.40
2019-01-23T04:32:48.016Z,-1.40
2019-01-23T04:35:17.400Z,-1.40
2019-01-23T04:37:46.758Z,-1.40
2019-01-23T04:40:15.737Z,-1.40
2019-01-23T04:42:44.915Z,-1.40
2019-01-23T04:45:14.852Z,-1.40
2019-01-23T04:47:43.831Z,-1.40
2019-01-23T04:50:14.795Z,-1.40
2019-01-23T04:52:58.582Z,-1.40
2019-01-23T04:55:27.431Z,-1.40
2019-01-23T04:57:56.742Z,-1.40
2019-01-23T05:00:27.013Z,-1.50
2019-01-23T05:02:55.891Z,-1.50
2019-01-23T05:05:24.870Z,-1.50
2019-01-23T05:07:53.615Z,-1.50
2019-01-23T05:10:22.731Z,-1.50
2019-01-23T05:13:10.697Z,-1.50
2019-01-23T05:15:39.704Z,-1.50
2019-01-23T05:18:08.771Z,-1.40
2019-01-23T05:20:37.516Z,-1.50
2019-01-23T05:23:06.294Z,-1.50
2019-01-23T05:25:46.163Z,-1.50
2019-01-23T05:28:28.412Z,-1.50
2019-01-23T05:30:57.466Z,-1.50
2019-01-23T05:33:26.210Z,-1.50
2019-01-23T05:35:55.169Z,-1.50
2019-01-23T05:38:23.945Z,-1.50
2019-01-23T05:40:52.970Z,-1.50
2019-01-23T05:43:21.726Z,-1.50
2019-01-23T05:45:50.547Z,-1.50
2019-01-23T05:48:19.548Z,-1.50
2019-01-23T05:50:48.447Z,-1.50
2019-01-23T05:53:17.262Z,-1.50
2019-01-23T05:55:46.012Z,-1.50
2019-01-23T05:58:14.814Z,-1.50
2019-01-23T06:00:43.563Z,-1.50
2019-01-23T06:03:12.638Z,-1.50
2019-01-23T06:05:41.391Z,-1.50
2019-01-23T06:08:10.180Z,-1.50
2019-01-23T06:10:39.029Z,-1.50
2019-01-23T06:13:08.167Z,-1.50
2019-01-23T06:15:37.104Z,-1.50
2019-01-23T06:18:06.016Z,-1.50
2019-01-23T06:20:35.100Z,-1.50
2019-01-23T06:23:03.882Z,-1.50
2019-01-23T06:25:32.731Z,-1.50
2019-01-23T06:28:01.633Z,-1.40
2019-01-23T06:30:30.387Z,-1.50
2019-01-23T06:32:59.372Z,-1.50
2019-01-23T06:35:28.255Z,-1.50
2019-01-23T06:37:57.235Z,-1.50
2019-01-23T06:40:26.335Z,-1.50
2019-01-23T06:42:55.084Z,-1.60
2019-01-23T06:45:24.118Z,-1.60
2019-01-23T06:47:53.044Z,-1.60
2019-01-23T06:50:23.485Z,-1.60
2019-01-23T06:52:52.316Z,-1.60
2019-01-23T06:55:21.053Z,-1.50
2019-01-23T06:57:50.489Z,-1.50
2019-01-23T07:00:24.212Z,-1.50
2019-01-23T07:02:53.554Z,-1.50
2019-01-23T07:05:22.582Z,-1.50
2019-01-23T07:08:10.967Z,-1.60
2019-01-23T07:10:39.959Z,-1.50
2019-01-23T07:13:08.731Z,-1.50
2019-01-23T07:15:37.459Z,-1.50
2019-01-23T07:18:06.391Z,-1.50
2019-01-23T07:20:35.571Z,-1.60
2019-01-23T07:23:04.428Z,-1.60
2019-01-23T07:25:33.370Z,-1.60
2019-01-23T07:28:02.257Z,-1.60
2019-01-23T07:30:38.285Z,-1.60
2019-01-23T07:33:26.764Z,-1.60
2019-01-23T07:35:55.512Z,-1.60
2019-01-23T07:38:24.334Z,-1.60
2019-01-23T07:40:53.151Z,-1.60
2019-01-23T07:43:21.914Z,-1.60
2019-01-23T07:45:50.959Z,-1.50
2019-01-23T07:48:19.798Z,-1.60
2019-01-23T07:50:48.559Z,-1.60
2019-01-23T07:53:17.410Z,-1.60
2019-01-23T07:55:46.484Z,-1.60
2019-01-23T07:58:15.375Z,-1.60
2019-01-23T08:00:44.201Z,-1.60
2019-01-23T08:03:13.124Z,-1.50
2019-01-23T08:05:42.092Z,-1.50
2019-01-23T08:08:10.935Z,-1.60
2019-01-23T08:10:40.138Z,-1.60
2019-01-23T08:13:08.993Z,-1.60
2019-01-23T08:15:37.981Z,-1.60
2019-01-23T08:18:07.247Z,-1.60
2019-01-23T08:20:36.026Z,-1.60
2019-01-23T08:23:05.047Z,-1.60
2019-01-23T08:25:33.976Z,-1.60
2019-01-23T08:28:02.749Z,-1.60
2019-01-23T08:30:38.382Z,-1.60
2019-01-23T08:33:02.512Z,-1.60
2019-01-23T08:35:31.351Z,-1.60
2019-01-23T08:38:00.505Z,-1.70
2019-01-23T08:40:29.501Z,-1.60
2019-01-23T08:42:58.584Z,-1.70
2019-01-23T08:45:28.197Z,-1.70
2019-01-23T08:47:56.952Z,-1.70
2019-01-23T08:50:31.432Z,-1.70
2019-01-23T08:53:00.306Z,-1.70
2019-01-23T08:55:29.089Z,-1.80
2019-01-23T08:57:57.917Z,-1.70
2019-01-23T09:00:26.859Z,-1.60
2019-01-23T09:02:55.768Z,-1.60
2019-01-23T09:05:43.844Z,-1.50
2019-01-23T09:08:12.730Z,-1.50
2019-01-23T09:10:41.497Z,-1.50
2019-01-23T09:13:10.248Z,-1.50
2019-01-23T09:15:39.224Z,-1.40
2019-01-23T09:18:08.174Z,-1.40
2019-01-23T09:20:37.149Z,-1.40
2019-01-23T09:23:06.096Z,-1.30
2019-01-23T09:25:54.099Z,-1.40
2019-01-23T09:28:22.854Z,-1.30
2019-01-23T09:31:22.747Z,-1.30
2019-01-23T09:34:11.183Z,-1.30
2019-01-23T09:37:04.974Z,-1.30
2019-01-23T09:39:56.864Z,-1.40
2019-01-23T09:43:19.591Z,-1.30
2019-01-23T09:46:18.095Z,-1.20
2019-01-23T09:49:21.805Z,-1.20
2019-01-23T09:52:33.893Z,-1.10
2019-01-23T09:55:02.747Z,-1.10
2019-01-23T09:57:34.209Z,-1.00
2019-01-23T10:00:03.941Z,-0.90
2019-01-23T10:02:32.825Z,-0.90
2019-01-23T10:05:01.551Z,-0.90
2019-01-23T10:07:30.415Z,-0.90
2019-01-23T10:09:59.508Z,-0.90
2019-01-23T10:12:28.612Z,-0.90
2019-01-23T10:14:57.404Z,-0.90
2019-01-23T10:17:26.209Z,-0.90
2019-01-23T10:19:55.309Z,-0.80
2019-01-23T10:22:24.150Z,-0.70
2019-01-23T10:24:52.913Z,-0.80
2019-01-23T10:27:21.812Z,-0.70
2019-01-23T10:29:50.588Z,-0.70
2019-01-23T10:32:19.375Z,-0.60
2019-01-23T10:34:48.144Z,-0.60
2019-01-23T10:37:19.672Z,-0.60
2019-01-23T10:39:47.521Z,-0.50
2019-01-23T10:42:16.443Z,-0.50
2019-01-23T10:44:45.224Z,-0.50
2019-01-23T10:47:14.192Z,-0.60
2019-01-23T10:49:42.974Z,-0.60
2019-01-23T10:52:11.996Z,-0.50
2019-01-23T10:54:40.762Z,-0.50
2019-01-23T10:57:09.840Z,-0.50
2019-01-23T10:59:39.007Z,-0.50
2019-01-23T11:02:07.932Z,-0.50
2019-01-23T11:04:36.680Z,-0.40
2019-01-23T11:07:06.069Z,-0.40
2019-01-23T11:09:35.133Z,-0.40
2019-01-23T11:12:04.048Z,-0.50
2019-01-23T11:14:33.165Z,-0.50
2019-01-23T11:17:02.023Z,-0.50
2019-01-23T11:19:30.776Z,-0.60
2019-01-23T11:21:59.652Z,-0.60
2019-01-23T11:24:47.708Z,-0.60
2019-01-23T11:27:16.547Z,-0.60
2019-01-23T11:29:45.431Z,-0.60
2019-01-23T11:32:14.322Z,-0.70
2019-01-23T11:34:43.130Z,-0.70
2019-01-23T11:37:12.014Z,-0.70
2019-01-23T11:39:40.848Z,-0.70
2019-01-23T11:42:09.596Z,-0.70
2019-01-23T11:44:38.623Z,-0.50
2019-01-23T11:47:07.805Z,-0.50
2019-01-23T11:49:36.526Z,-0.40
2019-01-23T11:52:05.912Z,-0.30
2019-01-23T11:54:34.674Z,-0.40
2019-01-23T11:57:03.421Z,-0.50
2019-01-23T11:59:32.598Z,-0.40
2019-01-23T12:02:01.332Z,-0.40
2019-01-23T12:04:30.136Z,-0.30
2019-01-23T12:06:58.912Z,-0.40
2019-01-23T12:09:27.944Z,-0.60
2019-01-23T12:11:56.861Z,-0.70
2019-01-23T12:14:26.040Z,-0.70
2019-01-23T12:16:55.045Z,-0.80
2019-01-23T12:19:23.808Z,-0.80
2019-01-23T12:21:52.642Z,-0.80
2019-01-23T12:24:21.475Z,-0.70
2019-01-23T12:26:50.585Z,-0.70
2019-01-23T12:29:19.334Z,-0.70
2019-01-23T12:31:48.380Z,-0.70
2019-01-23T12:34:17.128Z,-0.60
2019-01-23T12:36:46.259Z,-0.50
2019-01-23T12:39:15.118Z,-0.50
2019-01-23T12:41:44.159Z,-0.50
2019-01-23T12:44:12.977Z,-0.60
2019-01-23T12:46:41.798Z,-0.50
2019-01-23T12:49:10.619Z,-0.50
2019-01-23T12:51:39.711Z,-0.70
2019-01-23T12:54:08.482Z,-0.70
2019-01-23T12:56:37.595Z,-0.70
2019-01-23T12:59:06.343Z,-0.70
2019-01-23T13:01:41.796Z,-0.80
2019-01-23T13:04:06.144Z,-0.70
2019-01-23T13:06:34.900Z,-0.70
2019-01-23T13:09:05.234Z,-0.60
2019-01-23T13:11:34.075Z,-0.60
2019-01-23T13:14:02.903Z,-0.70
2019-01-23T13:16:31.686Z,-0.60
2019-01-23T13:19:00.432Z,-0.70
2019-01-23T13:21:29.196Z,-0.70
2019-01-23T13:23:58.325Z,-0.70
2019-01-23T13:26:27.813Z,-0.70
2019-01-23T13:28:56.568Z,-0.70
2019-01-23T13:31:25.419Z,-0.70
2019-01-23T13:33:54.218Z,-0.80
2019-01-23T13:36:23.063Z,-0.80
2019-01-23T13:38:51.867Z,-0.80
2019-01-23T13:41:20.809Z,-0.80
2019-01-23T13:43:49.916Z,-0.70
2019-01-23T13:46:18.707Z,-0.80
2019-01-23T13:48:47.456Z,-0.80
2019-01-23T13:51:16.495Z,-0.70
2019-01-23T13:53:45.638Z,-0.60
2019-01-23T13:56:14.579Z,-0.60
2019-01-23T13:58:43.666Z,-0.70
2019-01-23T14:01:12.577Z,-0.80
2019-01-23T14:03:41.662Z,-0.70
2019-01-23T14:06:10.474Z,-0.60
2019-01-23T14:08:39.962Z,-0.70
2019-01-23T14:11:09.167Z,-0.70
2019-01-23T14:13:38.142Z,-0.80
2019-01-23T14:16:07.064Z,-0.80
2019-01-23T14:18:35.918Z,-0.80
2019-01-23T14:21:04.820Z,-0.80
2019-01-23T14:23:33.710Z,-0.70
2019-01-23T14:26:02.467Z,-0.90
2019-01-23T14:28:31.232Z,-0.90
2019-01-23T14:31:00.078Z,-0.90
2019-01-23T14:33:29.203Z,-0.90
2019-01-23T14:35:57.996Z,-1.00
2019-01-23T14:38:26.823Z,-1.00
2019-01-23T14:40:55.714Z,-0.90
2019-01-23T14:43:24.454Z,-0.90
2019-01-23T14:45:53.673Z,-0.90
2019-01-23T14:48:22.745Z,-0.90
2019-01-23T14:50:51.511Z,-0.90
2019-01-23T14:53:20.506Z,-0.80
2019-01-23T14:55:49.249Z,-0.90
2019-01-23T14:58:18.191Z,-0.80
2019-01-23T15:00:47.007Z,-0.80
2019-01-23T15:03:16.072Z,-0.80
2019-01-23T15:05:44.872Z,-0.90
2019-01-23T15:08:13.703Z,-0.90
2019-01-23T15:10:42.522Z,-0.90
2019-01-23T15:13:11.457Z,-1.00
2019-01-23T15:15:40.451Z,-1.00
2019-01-23T15:18:09.529Z,-1.00
2019-01-23T15:20:40.167Z,-1.00
2019-01-23T15:23:08.999Z,-1.00
2019-01-23T15:25:38.249Z,-1.10
2019-01-23T15:28:07.162Z,-1.10
2019-01-23T15:30:36.147Z,-1.10
2019-01-23T15:33:05.241Z,-1.10
2019-01-23T15:35:34.418Z,-1.10
2019-01-23T15:38:03.190Z,-1.10
2019-01-23T15:40:34.979Z,-1.00
2019-01-23T15:43:04.170Z,-1.10
2019-01-23T15:45:33.165Z,-1.10
2019-01-23T15:48:02.470Z,-1.10
2019-01-23T15:50:31.561Z,-1.10
2019-01-23T15:53:00.382Z,-1.00
2019-01-23T15:55:29.133Z,-1.10
2019-01-23T15:57:57.955Z,-1.10
2019-01-23T16:00:31.650Z,-1.00
2019-01-23T16:03:00.827Z,-1.10
2019-01-23T16:05:48.782Z,-1.10
2019-01-23T16:08:17.535Z,-1.20
2019-01-23T16:10:46.389Z,-1.10
2019-01-23T16:13:15.544Z,-1.10
2019-01-23T16:15:44.716Z,-1.10
2019-01-23T16:18:13.716Z,-1.20
2019-01-23T16:20:42.584Z,-1.10
2019-01-23T16:23:11.727Z,-1.10
2019-01-23T16:25:40.838Z,-1.00
2019-01-23T16:28:09.586Z,-1.00
2019-01-23T16:30:41.883Z,-1.10
2019-01-23T16:33:10.984Z,-1.10
2019-01-23T16:35:39.894Z,-1.20
2019-01-23T16:38:10.447Z,-1.10
2019-01-23T16:40:39.407Z,-1.10
2019-01-23T16:43:08.494Z,-1.10
2019-01-23T16:45:37.378Z,-1.10
2019-01-23T16:48:06.791Z,-1.10
2019-01-23T16:50:35.885Z,-1.10
2019-01-23T16:53:05.077Z,-1.10
2019-01-23T16:55:34.115Z,-1.20
2019-01-23T16:58:03.013Z,-1.10
2019-01-23T17:00:31.935Z,-1.10
2019-01-23T17:03:02.348Z,-1.10
2019-01-23T17:05:32.344Z,-1.10
2019-01-23T17:08:03.143Z,-1.20
2019-01-23T17:10:32.237Z,-1.10
2019-01-23T17:13:01.134Z,-1.20
2019-01-23T17:15:30.228Z,-1.20
2019-01-23T17:17:59.150Z,-1.10
2019-01-23T17:20:34.803Z,-1.10
2019-01-23T17:23:04.197Z,-1.10
2019-01-23T17:25:33.235Z,-1.20
2019-01-23T17:28:02.348Z,-1.20
2019-01-23T17:30:31.126Z,-1.20
2019-01-23T17:33:00.115Z,-1.10
2019-01-23T17:35:28.939Z,-1.10
2019-01-23T17:37:57.754Z,-1.10
2019-01-23T17:40:26.646Z,-1.20
2019-01-23T17:42:55.571Z,-1.20
2019-01-23T17:45:29.619Z,-1.20
2019-01-23T17:47:58.628Z,-1.20
2019-01-23T17:50:27.863Z,-1.20
2019-01-23T17:52:56.694Z,-1.10
2019-01-23T17:55:28.167Z,-1.20
2019-01-23T17:57:57.075Z,-1.20
2019-01-23T18:00:28.271Z,-1.20
2019-01-23T18:02:57.103Z,-1.20
2019-01-23T18:05:26.221Z,-1.20
2019-01-23T18:07:55.500Z,-1.20
2019-01-23T18:10:24.662Z,-1.20
2019-01-23T18:12:53.935Z,-1.20
2019-01-23T18:15:24.217Z,-1.30
2019-01-23T18:17:53.388Z,-1.30
2019-01-23T18:20:28.408Z,-1.30
2019-01-23T18:22:57.426Z,-1.30
2019-01-23T18:25:26.407Z,-1.30
2019-01-23T18:27:55.464Z,-1.30
2019-01-23T18:30:33.731Z,-1.40
2019-01-23T18:33:03.851Z,-1.30
2019-01-23T18:35:58.316Z,-1.40
2019-01-23T18:38:53.033Z,-1.30
2019-01-23T18:41:48.580Z,-1.30
2019-01-23T18:44:49.103Z,-1.40
2019-01-23T18:47:37.561Z,-1.40
2019-01-23T18:50:46.901Z,-1.30
2019-01-23T18:53:15.994Z,-1.30
2019-01-23T18:55:44.833Z,-1.30
2019-01-23T18:58:14.084Z,-1.30
2019-01-23T19:00:43.375Z,-1.30
2019-01-23T19:03:12.417Z,-1.30
2019-01-23T19:05:41.244Z,-1.40
2019-01-23T19:08:11.346Z,-1.40
2019-01-23T19:10:40.297Z,-1.30
2019-01-23T19:13:09.168Z,-1.40
2019-01-23T19:15:38.230Z,-1.40
2019-01-23T19:18:07.139Z,-1.40
2019-01-23T19:20:36.065Z,-1.40
2019-01-23T19:23:05.108Z,-1.40
2019-01-23T19:25:33.972Z,-1.30
2019-01-23T19:28:03.092Z,-1.40
2019-01-23T19:30:32.323Z,-1.40
2019-01-23T19:33:01.356Z,-1.40
2019-01-23T19:35:30.400Z,-1.40
2019-01-23T19:37:59.904Z,-1.40
2019-01-23T19:40:29.407Z,-1.40
2019-01-23T19:42:58.549Z,-1.40
2019-01-23T19:45:28.514Z,-1.40
2019-01-23T19:47:57.487Z,-1.40
2019-01-23T19:50:26.609Z,-1.40
2019-01-23T19:52:55.371Z,-1.40
2019-01-23T19:55:24.254Z,-1.40
2019-01-23T19:57:53.379Z,-1.40
2019-01-23T20:00:23.467Z,-1.50
2019-01-23T20:02:52.253Z,-1.50
2019-01-23T20:05:26.540Z,-1.50
2019-01-23T20:07:59.856Z,-1.50
2019-01-23T20:10:29.509Z,-1.40
2019-01-23T20:12:59.008Z,-1.50
2019-01-23T20:15:27.841Z,-1.40
2019-01-23T20:18:02.855Z,-1.50
2019-01-23T20:20:31.690Z,-1.50
2019-01-23T20:23:00.715Z,-1.50
2019-01-23T20:25:29.819Z,-1.60
2019-01-23T20:27:58.769Z,-1.60
2019-01-23T20:30:33.457Z,-1.60
2019-01-23T20:33:02.727Z,-1.60
2019-01-23T20:35:31.713Z,-1.60
2019-01-23T20:38:02.037Z,-1.60
2019-01-23T20:40:31.079Z,-1.60
2019-01-23T20:42:59.837Z,-1.60
2019-01-23T20:45:29.224Z,-1.60
2019-01-23T20:47:58.143Z,-1.60
2019-01-23T20:50:29.482Z,-1.60
2019-01-23T20:52:58.457Z,-1.60
2019-01-23T20:55:27.370Z,-1.50
2019-01-23T20:57:56.260Z,-1.50
2019-01-23T21:00:27.556Z,-1.50
2019-01-23T21:02:56.803Z,-1.60
2019-01-23T21:05:25.668Z,-1.60
2019-01-23T21:07:54.844Z,-1.60
2019-01-23T21:10:23.907Z,-1.60
2019-01-23T21:12:52.848Z,-1.60
2019-01-23T21:15:24.281Z,-1.60
2019-01-23T21:17:53.073Z,-1.60
2019-01-23T21:20:22.461Z,-1.60
2019-01-23T21:22:51.847Z,-1.60
2019-01-23T21:25:20.678Z,-1.60
2019-01-23T21:27:50.119Z,-1.60
2019-01-23T21:30:21.730Z,-1.50
2019-01-23T21:32:50.756Z,-1.60
2019-01-23T21:35:20.347Z,-1.60
2019-01-23T21:37:49.360Z,-1.60
2019-01-23T21:40:20.584Z,-1.60
2019-01-23T21:42:49.647Z,-1.60
2019-01-23T21:45:18.764Z,-1.70
2019-01-23T21:47:48.764Z,-1.70
2019-01-23T21:50:18.927Z,-1.70
2019-01-23T21:52:48.539Z,-1.70
2019-01-23T21:55:19.249Z,-1.70
2019-01-23T21:57:48.648Z,-1.70
2019-01-23T22:00:23.714Z,-1.70
2019-01-23T22:02:54.265Z,-1.70
2019-01-23T22:05:23.607Z,-1.70
2019-01-23T22:07:52.697Z,-1.70
2019-01-23T22:10:21.597Z,-1.70
2019-01-23T22:12:50.679Z,-1.70
2019-01-23T22:15:20.968Z,-1.70
2019-01-23T22:17:49.803Z,-1.60
2019-01-23T22:20:19.668Z,-1.70
2019-01-23T22:22:48.591Z,-1.70
2019-01-23T22:25:19.510Z,-1.70
2019-01-23T22:27:48.561Z,-1.70
2019-01-23T22:30:20.118Z,-1.60
2019-01-23T22:32:49.351Z,-1.60
2019-01-23T22:35:18.366Z,-1.60
2019-01-23T22:37:47.276Z,-1.60
2019-01-23T22:40:17.547Z,-1.70
2019-01-23T22:42:46.458Z,-1.70
2019-01-23T22:45:17.484Z,-1.60
2019-01-23T22:47:46.359Z,-1.70
2019-01-23T22:50:17.881Z,-1.70
2019-01-23T22:52:46.867Z,-1.70
2019-01-23T22:55:15.818Z,-1.70
2019-01-23T22:57:44.741Z,-1.70
2019-01-23T23:00:42.439Z,-1.70
2019-01-23T23:03:16.444Z,-1.70
2019-01-23T23:05:45.354Z,-1.70
2019-01-23T23:08:14.679Z,-1.70
2019-01-23T23:10:43.546Z,-1.70
2019-01-23T23:13:12.788Z,-1.60
2019-01-23T23:15:41.687Z,-1.70
2019-01-23T23:18:10.980Z,-1.70
2019-01-23T23:20:40.066Z,-1.70
2019-01-23T23:23:09.289Z,-1.60
2019-01-23T23:25:38.459Z,-1.70
2019-01-23T23:28:07.375Z,-1.70
2019-01-23T23:30:36.204Z,-1.80
2019-01-23T23:33:05.494Z,-1.70
2019-01-23T23:35:34.575Z,-1.70
2019-01-23T23:38:03.488Z,-1.70
2019-01-23T23:40:32.249Z,-1.70
2019-01-23T23:43:01.182Z,-1.70
2019-01-23T23:45:30.319Z,-1.70
2019-01-23T23:47:59.442Z,-1.70
2019-01-23T23:50:28.387Z,-1.70
2019-01-23T23:52:57.307Z,-1.70
2019-01-23T23:55:26.472Z,-1.70
2019-01-23T23:57:55.333Z,-1.70
